Swift Arrow — WAFK — position and weather

sailwx.info

Track history (hours):
 
Tides and Currents Weather Stations Pressure Air Temp Water Temp Dewpoint Dewpoint Depression Visibility Wind Speed Wind Dir Waves Ship Positions

Swift Arrow

Owner: ARROW LAUNCH SERVICE INC, Port Angeles, WA. More information available from US FCC via Universal Licensing System and Coast Guard Vessel Documentation Center.

Last reported at 2018-Feb-25 20:21 UTC. Time now 2018-Feb-26 00:06 UTC.
Position N 47°15' W 122°26'.

Type: Port tender. MMSI: 369021000.

Date/timePositionNaut miles runAvg speedWind from/ knotsBaromVisibWave heightAir tempDewpointWater temp
2018-Feb-25 20:21N 47°15' W 122°26'2 4.9
2018-Feb-25 19:53N 47°17' W 122°25'1 3.5
2018-Feb-25 19:30N 47°16' W 122°26'0 0.5
2018-Feb-25 19:00N 47°16' W 122°26'1 0.1
2018-Feb-25 08:58N 47°15' W 122°26'2 3.9
2018-Feb-25 08:22N 47°17' W 122°25'1 3.0
2018-Feb-25 08:00N 47°16' W 122°26'1 0.1
2018-Feb-24 15:55N 47°15' W 122°26'2 4.4
2018-Feb-24 15:30N 47°17' W 122°27'0 0.5
2018-Feb-24 15:00N 47°17' W 122°27'1 2.2
2018-Feb-24 14:30N 47°17' W 122°25'1 1.9
2018-Feb-24 14:00N 47°17' W 122°27'0 0.9
2018-Feb-24 13:30N 47°17' W 122°26'2 0.2
2018-Feb-24 02:44N 47°15' W 122°26'2 6.8
2018-Feb-24 02:30N 47°17' W 122°26'1 1.2
2018-Feb-24 02:00N 47°17' W 122°25'0 1.0
2018-Feb-24 01:30N 47°17' W 122°26'2 0.3
2018-Feb-23 19:06N 47°15' W 122°26'1 5.0
2018-Feb-23 19:00N 47°16' W 122°26'1 1.7
2018-Feb-23 18:30N 47°16' W 122°27'0 0.1
2018-Feb-23 18:00N 47°16' W 122°27'0 0.5
2018-Feb-23 17:30N 47°16' W 122°27'1 0.1
2018-Feb-23 02:17N 47°15' W 122°26'2 5.5
2018-Feb-23 02:00N 47°17' W 122°25'1 2.8
2018-Feb-23 01:29N 47°16' W 122°27'1 0.2
2018-Feb-22 18:44N 47°15' W 122°26'2 8.9
2018-Feb-22 18:30N 47°17' W 122°28'2 4.3
2018-Feb-22 18:00N 47°16' W 122°25'2 0.1
2018-Feb-22 01:41N 47°15' W 122°26'2 8.4
2018-Feb-22 01:30N 47°17' W 122°26'1 2.7
2018-Feb-22 01:00N 47°16' W 122°25'1 2.7
2018-Feb-22 00:30N 47°17' W 122°26'2 0.6
2018-Feb-21 21:49N 47°15' W 122°26'2 4.6
2018-Feb-21 21:27N 47°17' W 122°26'2 0.5
2018-Feb-21 18:03N 47°15' W 122°26'0 4.5
2018-Feb-21 18:00N 47°15' W 122°26'0 0.1
2018-Feb-21 15:40N 47°15' W 122°26'1 6.3
2018-Feb-21 15:30N 47°16' W 122°26'1 1.4
2018-Feb-21 14:44N 47°15' W 122°26'1 6.4
2018-Feb-21 14:30N 47°17' W 122°26'1 0.2
2018-Feb-21 05:49N 47°15' W 122°26'1 3.0
2018-Feb-21 05:30N 47°16' W 122°26'1 0.5
2018-Feb-21 03:35N 47°15' W 122°26'0 5.5
2018-Feb-21 03:30N 47°16' W 122°26'0 0.3
2018-Feb-21 02:42N 47°15' W 122°26'1 5.9
2018-Feb-21 02:29N 47°17' W 122°26'1 2.0
2018-Feb-21 01:54N 47°15' W 122°26'0 0.2
2018-Feb-21 00:42N 47°15' W 122°26'2 8.1
2018-Feb-21 00:30N 47°17' W 122°26'0 0.1
2018-Feb-21 00:00N 47°17' W 122°26'2 2.2
2018-Feb-20 23:16N 47°15' W 122°26'2 5.7
2018-Feb-20 22:59N 47°17' W 122°26'0 0.0
2018-Feb-20 22:30N 47°17' W 122°26'1 2.6
2018-Feb-20 21:59N 47°15' W 122°26'1 2.9
2018-Feb-20 21:30N 47°17' W 122°26'0 0.0
2018-Feb-20 21:00N 47°17' W 122°26'2 2.2
2018-Feb-20 20:14N 47°15' W 122°26'2 7.1
2018-Feb-20 20:00N 47°17' W 122°26'2 1.0
2018-Feb-20 18:21N 47°15' W 122°26'2 4.5
2018-Feb-20 18:00N 47°17' W 122°26'0 0.0
2018-Feb-20 17:30N 47°17' W 122°26'1 2.8
2018-Feb-20 17:00N 47°15' W 122°26'1 2.8
2018-Feb-20 16:30N 47°17' W 122°27'2 0.8
2018-Feb-20 14:39N 47°15' W 122°26'1 6.6
2018-Feb-20 14:30N 47°16' W 122°26'1 0.1
2018-Feb-20 04:21N 47°15' W 122°26'2 4.6
2018-Feb-20 04:00N 47°17' W 122°27'2 0.4
2018-Feb-20 00:22N 47°15' W 122°26'2 4.5
2018-Feb-20 00:00N 47°17' W 122°26'0 0.1
2018-Feb-19 23:31N 47°17' W 122°26'2 0.2
2018-Feb-19 17:11N 47°15' W 122°26'1 7.6
2018-Feb-19 17:01N 47°17' W 122°26'1 0.9
2018-Feb-19 15:16N 47°15' W 122°26'1 5.6
2018-Feb-19 15:01N 47°17' W 122°26'1 0.2
2018-Feb-19 06:30N 47°15' W 122°26'1 3.0
2018-Feb-19 06:00N 47°17' W 122°26'1 0.2
2018-Feb-18 22:09N 47°15' W 122°26'1 9.6
2018-Feb-18 22:00N 47°17' W 122°26'0 0.2
2018-Feb-18 21:29N 47°17' W 122°26'0 0.1
2018-Feb-18 21:00N 47°17' W 122°26'0 0.6
2018-Feb-18 20:30N 47°17' W 122°26'0 0.5
2018-Feb-18 20:00N 47°17' W 122°27'0 0.5
2018-Feb-18 19:26N 47°17' W 122°26'2 2.7
2018-Feb-18 18:47N 47°15' W 122°26'2 5.5
2018-Feb-18 18:30N 47°17' W 122°26'0 0.0
2018-Feb-18 17:58N 47°17' W 122°26'2 1.2
2018-Feb-18 16:42N 47°15' W 122°26'2 7.5
2018-Feb-18 16:27N 47°17' W 122°26'0 0.3
2018-Feb-18 16:00N 47°17' W 122°26'0 0.3
2018-Feb-18 15:30N 47°17' W 122°26'2 0.2
2018-Feb-18 04:53N 47°15' W 122°26'2 4.8
2018-Feb-18 04:30N 47°17' W 122°26'2 0.1
2018-Feb-17 15:01N 47°15' W 122°26'0 5.2
2018-Feb-17 14:58N 47°16' W 122°26'0 0.0
2018-Feb-17 04:22N 47°15' W 122°26'2 4.3
2018-Feb-17 03:56N 47°17' W 122°26'2 0.7
2018-Feb-17 01:49N 47°15' W 122°26'0 0.2
2018-Feb-17 00:56N 47°16' W 122°26'1 2.4
2018-Feb-17 00:30N 47°17' W 122°26'0 0.0
2018-Feb-17 00:00N 47°17' W 122°26'1 0.3
2018-Feb-16 21:55N 47°17' W 122°25'1 1.7
2018-Feb-16 21:31N 47°17' W 122°26'0 0.1
2018-Feb-16 21:00N 47°16' W 122°26'1 0.2
2018-Feb-16 16:16N 47°15' W 122°26'2 5.2
2018-Feb-16 15:57N 47°17' W 122°26'1 3.2
2018-Feb-16 15:30N 47°16' W 122°26'0 0.8
2018-Feb-16 15:00N 47°16' W 122°26'1 0.1
2018-Feb-16 02:24N 47°15' W 122°26'2 4.4
2018-Feb-16 02:00N 47°17' W 122°26'2 0.6
2018-Feb-15 23:10N 47°15' W 122°26'1 7.1
2018-Feb-15 22:58N 47°17' W 122°26'0 0.2
2018-Feb-15 22:30N 47°17' W 122°26'1 2.1
2018-Feb-15 22:00N 47°16' W 122°26'0 0.9
2018-Feb-15 21:30N 47°16' W 122°26'  
Track history (hours):
 
Tides and Currents Weather Stations Pressure Air Temp Water Temp Dewpoint Dewpoint Depression Visibility Wind Speed Wind Dir Waves Ship Positions

Swift Arrow

Owner: ARROW LAUNCH SERVICE INC, Port Angeles, WA. More information available from US FCC via Universal Licensing System and Coast Guard Vessel Documentation Center.

Last reported at 2018-Feb-25 20:21 UTC. Time now 2018-Feb-26 00:06 UTC.
Position N 47°15' W 122°26'.

Type: Port tender. MMSI: 369021000.

Date/timePositionNaut miles runAvg speedWind from/ knotsBaromVisibWave heightAir tempDewpointWater temp
2018-Feb-25 20:21N 47°15' W 122°26'2 4.9
2018-Feb-25 19:53N 47°17' W 122°25'1 3.5
2018-Feb-25 19:30N 47°16' W 122°26'0 0.5
2018-Feb-25 19:00N 47°16' W 122°26'1 0.1
2018-Feb-25 08:58N 47°15' W 122°26'2 3.9
2018-Feb-25 08:22N 47°17' W 122°25'1 3.0
2018-Feb-25 08:00N 47°16' W 122°26'1 0.1
2018-Feb-24 15:55N 47°15' W 122°26'2 4.4
2018-Feb-24 15:30N 47°17' W 122°27'0 0.5
2018-Feb-24 15:00N 47°17' W 122°27'1 2.2
2018-Feb-24 14:30N 47°17' W 122°25'1 1.9
2018-Feb-24 14:00N 47°17' W 122°27'0 0.9
2018-Feb-24 13:30N 47°17' W 122°26'2 0.2
2018-Feb-24 02:44N 47°15' W 122°26'2 6.8
2018-Feb-24 02:30N 47°17' W 122°26'1 1.2
2018-Feb-24 02:00N 47°17' W 122°25'0 1.0
2018-Feb-24 01:30N 47°17' W 122°26'2 0.3
2018-Feb-23 19:06N 47°15' W 122°26'1 5.0
2018-Feb-23 19:00N 47°16' W 122°26'1 1.7
2018-Feb-23 18:30N 47°16' W 122°27'0 0.1
2018-Feb-23 18:00N 47°16' W 122°27'0 0.5
2018-Feb-23 17:30N 47°16' W 122°27'1 0.1
2018-Feb-23 02:17N 47°15' W 122°26'2 5.5
2018-Feb-23 02:00N 47°17' W 122°25'1 2.8
2018-Feb-23 01:29N 47°16' W 122°27'1 0.2
2018-Feb-22 18:44N 47°15' W 122°26'2 8.9
2018-Feb-22 18:30N 47°17' W 122°28'2 4.3
2018-Feb-22 18:00N 47°16' W 122°25'2 0.1
2018-Feb-22 01:41N 47°15' W 122°26'2 8.4
2018-Feb-22 01:30N 47°17' W 122°26'1 2.7
2018-Feb-22 01:00N 47°16' W 122°25'1 2.7
2018-Feb-22 00:30N 47°17' W 122°26'2 0.6
2018-Feb-21 21:49N 47°15' W 122°26'2 4.6
2018-Feb-21 21:27N 47°17' W 122°26'2 0.5
2018-Feb-21 18:03N 47°15' W 122°26'0 4.5
2018-Feb-21 18:00N 47°15' W 122°26'0 0.1
2018-Feb-21 15:40N 47°15' W 122°26'1 6.3
2018-Feb-21 15:30N 47°16' W 122°26'1 1.4
2018-Feb-21 14:44N 47°15' W 122°26'1 6.4
2018-Feb-21 14:30N 47°17' W 122°26'1 0.2
2018-Feb-21 05:49N 47°15' W 122°26'1 3.0
2018-Feb-21 05:30N 47°16' W 122°26'1 0.5
2018-Feb-21 03:35N 47°15' W 122°26'0 5.5
2018-Feb-21 03:30N 47°16' W 122°26'0 0.3
2018-Feb-21 02:42N 47°15' W 122°26'1 5.9
2018-Feb-21 02:29N 47°17' W 122°26'1 2.0
2018-Feb-21 01:54N 47°15' W 122°26'0 0.2
2018-Feb-21 00:42N 47°15' W 122°26'2 8.1
2018-Feb-21 00:30N 47°17' W 122°26'0 0.1
2018-Feb-21 00:00N 47°17' W 122°26'2 2.2
2018-Feb-20 23:16N 47°15' W 122°26'2 5.7
2018-Feb-20 22:59N 47°17' W 122°26'0 0.0
2018-Feb-20 22:30N 47°17' W 122°26'1 2.6
2018-Feb-20 21:59N 47°15' W 122°26'1 2.9
2018-Feb-20 21:30N 47°17' W 122°26'0 0.0
2018-Feb-20 21:00N 47°17' W 122°26'2 2.2
2018-Feb-20 20:14N 47°15' W 122°26'2 7.1
2018-Feb-20 20:00N 47°17' W 122°26'2 1.0
2018-Feb-20 18:21N 47°15' W 122°26'2 4.5
2018-Feb-20 18:00N 47°17' W 122°26'0 0.0
2018-Feb-20 17:30N 47°17' W 122°26'1 2.8
2018-Feb-20 17:00N 47°15' W 122°26'1 2.8
2018-Feb-20 16:30N 47°17' W 122°27'2 0.8
2018-Feb-20 14:39N 47°15' W 122°26'1 6.6
2018-Feb-20 14:30N 47°16' W 122°26'1 0.1
2018-Feb-20 04:21N 47°15' W 122°26'2 4.6
2018-Feb-20 04:00N 47°17' W 122°27'2 0.4
2018-Feb-20 00:22N 47°15' W 122°26'2 4.5
2018-Feb-20 00:00N 47°17' W 122°26'0 0.1
2018-Feb-19 23:31N 47°17' W 122°26'2 0.2
2018-Feb-19 17:11N 47°15' W 122°26'1 7.6
2018-Feb-19 17:01N 47°17' W 122°26'1 0.9
2018-Feb-19 15:16N 47°15' W 122°26'1 5.6
2018-Feb-19 15:01N 47°17' W 122°26'1 0.2
2018-Feb-19 06:30N 47°15' W 122°26'1 3.0
2018-Feb-19 06:00N 47°17' W 122°26'1 0.2
2018-Feb-18 22:09N 47°15' W 122°26'1 9.6
2018-Feb-18 22:00N 47°17' W 122°26'0 0.2
2018-Feb-18 21:29N 47°17' W 122°26'0 0.1
2018-Feb-18 21:00N 47°17' W 122°26'0 0.6
2018-Feb-18 20:30N 47°17' W 122°26'0 0.5
2018-Feb-18 20:00N 47°17' W 122°27'0 0.5
2018-Feb-18 19:26N 47°17' W 122°26'2 2.7
2018-Feb-18 18:47N 47°15' W 122°26'2 5.5
2018-Feb-18 18:30N 47°17' W 122°26'0 0.0
2018-Feb-18 17:58N 47°17' W 122°26'2 1.2
2018-Feb-18 16:42N 47°15' W 122°26'2 7.5
2018-Feb-18 16:27N 47°17' W 122°26'0 0.3
2018-Feb-18 16:00N 47°17' W 122°26'0 0.3
2018-Feb-18 15:30N 47°17' W 122°26'2 0.2
2018-Feb-18 04:53N 47°15' W 122°26'2 4.8
2018-Feb-18 04:30N 47°17' W 122°26'2 0.1
2018-Feb-17 15:01N 47°15' W 122°26'0 5.2
2018-Feb-17 14:58N 47°16' W 122°26'0 0.0
2018-Feb-17 04:22N 47°15' W 122°26'2 4.3
2018-Feb-17 03:56N 47°17' W 122°26'2 0.7
2018-Feb-17 01:49N 47°15' W 122°26'0 0.2
2018-Feb-17 00:56N 47°16' W 122°26'1 2.4
2018-Feb-17 00:30N 47°17' W 122°26'0 0.0
2018-Feb-17 00:00N 47°17' W 122°26'1 0.3
2018-Feb-16 21:55N 47°17' W 122°25'1 1.7
2018-Feb-16 21:31N 47°17' W 122°26'0 0.1
2018-Feb-16 21:00N 47°16' W 122°26'1 0.2
2018-Feb-16 16:16N 47°15' W 122°26'2 5.2
2018-Feb-16 15:57N 47°17' W 122°26'1 3.2
2018-Feb-16 15:30N 47°16' W 122°26'0 0.8
2018-Feb-16 15:00N 47°16' W 122°26'1 0.1
2018-Feb-16 02:24N 47°15' W 122°26'2 4.4
2018-Feb-16 02:00N 47°17' W 122°26'2 0.6
2018-Feb-15 23:10N 47°15' W 122°26'1 7.1
2018-Feb-15 22:58N 47°17' W 122°26'0 0.2
2018-Feb-15 22:30N 47°17' W 122°26'1 2.1
2018-Feb-15 22:00N 47°16' W 122°26'0 0.9
2018-Feb-15 21:30N 47°16' W 122°26'  

Dump ship's entire track history